sensor_id;sensor_type;location;lat;lon;timestamp;P1;durP1;ratioP1;P2;durP2;ratioP2
55114;SDS011;41010;53.252;5.786;2022-08-07T00:01:44;6.60;;;4.30;;
55114;SDS011;41010;53.252;5.786;2022-08-07T00:04:11;7.35;;;4.68;;
55114;SDS011;41010;53.252;5.786;2022-08-07T00:06:38;6.00;;;4.90;;
55114;SDS011;41010;53.252;5.786;2022-08-07T00:09:06;5.95;;;4.50;;
55114;SDS011;41010;53.252;5.786;2022-08-07T00:11:33;5.82;;;4.60;;
55114;SDS011;41010;53.252;5.786;2022-08-07T00:14:02;9.02;;;5.22;;
55114;SDS011;41010;53.252;5.786;2022-08-07T00:16:29;6.25;;;4.93;;
55114;SDS011;41010;53.252;5.786;2022-08-07T00:18:56;6.85;;;5.05;;
55114;SDS011;41010;53.252;5.786;2022-08-07T00:21:23;6.38;;;4.82;;
55114;SDS011;41010;53.252;5.786;2022-08-07T00:23:50;7.45;;;4.85;;
55114;SDS011;41010;53.252;5.786;2022-08-07T00:26:18;5.95;;;4.45;;
55114;SDS011;41010;53.252;5.786;2022-08-07T00:28:45;6.93;;;5.10;;
55114;SDS011;41010;53.252;5.786;2022-08-07T00:31:13;7.15;;;4.72;;
55114;SDS011;41010;53.252;5.786;2022-08-07T00:33:41;7.35;;;4.57;;
55114;SDS011;41010;53.252;5.786;2022-08-07T00:36:08;7.25;;;5.32;;
55114;SDS011;41010;53.252;5.786;2022-08-07T00:38:35;6.20;;;4.93;;
55114;SDS011;41010;53.252;5.786;2022-08-07T00:41:04;7.40;;;5.30;;
55114;SDS011;41010;53.252;5.786;2022-08-07T00:43:31;6.97;;;4.75;;
55114;SDS011;41010;53.252;5.786;2022-08-07T00:45:58;6.25;;;5.43;;
55114;SDS011;41010;53.252;5.786;2022-08-07T00:48:27;7.25;;;4.75;;
55114;SDS011;41010;53.252;5.786;2022-08-07T00:50:54;6.90;;;4.95;;
55114;SDS011;41010;53.252;5.786;2022-08-07T00:53:21;10.73;;;4.82;;
55114;SDS011;41010;53.252;5.786;2022-08-07T00:55:49;8.00;;;4.80;;
55114;SDS011;41010;53.252;5.786;2022-08-07T00:58:17;5.93;;;4.72;;
55114;SDS011;41010;53.252;5.786;2022-08-07T01:00:45;6.88;;;4.60;;
55114;SDS011;41010;53.252;5.786;2022-08-07T01:03:13;6.70;;;5.03;;
55114;SDS011;41010;53.252;5.786;2022-08-07T01:05:42;9.45;;;5.10;;
55114;SDS011;41010;53.252;5.786;2022-08-07T01:08:10;7.57;;;5.10;;
55114;SDS011;41010;53.252;5.786;2022-08-07T01:10:37;7.43;;;4.82;;
55114;SDS011;41010;53.252;5.786;2022-08-07T01:13:07;8.65;;;4.95;;
55114;SDS011;41010;53.252;5.786;2022-08-07T01:15:34;8.18;;;5.72;;
55114;SDS011;41010;53.252;5.786;2022-08-07T01:18:03;7.30;;;5.60;;
55114;SDS011;41010;53.252;5.786;2022-08-07T01:20:32;8.02;;;5.68;;
55114;SDS011;41010;53.252;5.786;2022-08-07T01:23:01;7.60;;;5.03;;
55114;SDS011;41010;53.252;5.786;2022-08-07T01:25:28;6.05;;;5.03;;
55114;SDS011;41010;53.252;5.786;2022-08-07T01:27:56;6.63;;;5.40;;
55114;SDS011;41010;53.252;5.786;2022-08-07T01:30:23;6.93;;;5.93;;
55114;SDS011;41010;53.252;5.786;2022-08-07T01:32:52;7.28;;;5.88;;
55114;SDS011;41010;53.252;5.786;2022-08-07T01:35:19;6.80;;;5.35;;
55114;SDS011;41010;53.252;5.786;2022-08-07T01:37:46;8.02;;;5.10;;
55114;SDS011;41010;53.252;5.786;2022-08-07T01:40:16;6.65;;;4.68;;
55114;SDS011;41010;53.252;5.786;2022-08-07T01:42:45;7.22;;;5.20;;
55114;SDS011;41010;53.252;5.786;2022-08-07T01:45:12;10.52;;;5.55;;
55114;SDS011;41010;53.252;5.786;2022-08-07T01:47:40;6.63;;;4.93;;
55114;SDS011;41010;53.252;5.786;2022-08-07T01:50:07;8.15;;;5.63;;
55114;SDS011;41010;53.252;5.786;2022-08-07T01:52:35;7.47;;;5.43;;
55114;SDS011;41010;53.252;5.786;2022-08-07T01:55:02;8.25;;;5.00;;
55114;SDS011;41010;53.252;5.786;2022-08-07T01:57:31;5.68;;;4.70;;
55114;SDS011;41010;53.252;5.786;2022-08-07T02:00:07;6.25;;;5.10;;
55114;SDS011;41010;53.252;5.786;2022-08-07T02:02:37;6.78;;;5.00;;
55114;SDS011;41010;53.252;5.786;2022-08-07T02:05:06;7.60;;;5.00;;
55114;SDS011;41010;53.252;5.786;2022-08-07T02:07:37;7.13;;;4.85;;
55114;SDS011;41010;53.252;5.786;2022-08-07T02:10:05;8.38;;;5.20;;
55114;SDS011;41010;53.252;5.786;2022-08-07T02:12:36;6.03;;;5.22;;
55114;SDS011;41010;53.252;5.786;2022-08-07T02:15:04;7.03;;;5.28;;
55114;SDS011;41010;53.252;5.786;2022-08-07T02:17:32;7.95;;;5.47;;
55114;SDS011;41010;53.252;5.786;2022-08-07T02:20:01;7.70;;;5.30;;
55114;SDS011;41010;53.252;5.786;2022-08-07T02:22:29;6.60;;;4.93;;
55114;SDS011;41010;53.252;5.786;2022-08-07T02:24:56;7.32;;;5.05;;
55114;SDS011;41010;53.252;5.786;2022-08-07T02:27:25;6.20;;;5.00;;
55114;SDS011;41010;53.252;5.786;2022-08-07T02:29:55;7.75;;;5.43;;
55114;SDS011;41010;53.252;5.786;2022-08-07T02:32:23;7.05;;;4.93;;
55114;SDS011;41010;53.252;5.786;2022-08-07T02:34:51;8.30;;;5.65;;
55114;SDS011;41010;53.252;5.786;2022-08-07T02:37:19;8.98;;;5.55;;
55114;SDS011;41010;53.252;5.786;2022-08-07T02:39:47;6.53;;;5.18;;
55114;SDS011;41010;53.252;5.786;2022-08-07T02:42:14;9.30;;;5.97;;
55114;SDS011;41010;53.252;5.786;2022-08-07T02:44:43;7.18;;;5.75;;
55114;SDS011;41010;53.252;5.786;2022-08-07T02:47:13;10.85;;;5.95;;
55114;SDS011;41010;53.252;5.786;2022-08-07T02:49:42;8.18;;;6.03;;
55114;SDS011;41010;53.252;5.786;2022-08-07T02:52:10;7.95;;;5.80;;
55114;SDS011;41010;53.252;5.786;2022-08-07T02:54:40;9.18;;;6.35;;
55114;SDS011;41010;53.252;5.786;2022-08-07T02:57:09;9.43;;;6.47;;
55114;SDS011;41010;53.252;5.786;2022-08-07T02:59:38;9.32;;;6.78;;
55114;SDS011;41010;53.252;5.786;2022-08-07T03:02:09;8.18;;;5.95;;
55114;SDS011;41010;53.252;5.786;2022-08-07T03:04:38;9.20;;;6.72;;
55114;SDS011;41010;53.252;5.786;2022-08-07T03:07:06;9.52;;;6.85;;
55114;SDS011;41010;53.252;5.786;2022-08-07T03:09:34;10.60;;;5.55;;
55114;SDS011;41010;53.252;5.786;2022-08-07T03:12:01;7.78;;;5.78;;
55114;SDS011;41010;53.252;5.786;2022-08-07T03:14:29;7.88;;;6.10;;
55114;SDS011;41010;53.252;5.786;2022-08-07T03:16:56;8.35;;;6.32;;
55114;SDS011;41010;53.252;5.786;2022-08-07T03:19:24;9.40;;;6.28;;
55114;SDS011;41010;53.252;5.786;2022-08-07T03:21:53;8.52;;;6.18;;
55114;SDS011;41010;53.252;5.786;2022-08-07T03:24:21;9.32;;;6.57;;
55114;SDS011;41010;53.252;5.786;2022-08-07T03:26:49;8.38;;;6.80;;
55114;SDS011;41010;53.252;5.786;2022-08-07T03:29:17;12.02;;;7.15;;
55114;SDS011;41010;53.252;5.786;2022-08-07T03:31:44;11.30;;;7.47;;
55114;SDS011;41010;53.252;5.786;2022-08-07T03:34:13;9.38;;;7.30;;
55114;SDS011;41010;53.252;5.786;2022-08-07T03:36:43;8.38;;;6.28;;
55114;SDS011;41010;53.252;5.786;2022-08-07T03:39:13;11.20;;;7.10;;
55114;SDS011;41010;53.252;5.786;2022-08-07T03:41:41;10.70;;;7.28;;
55114;SDS011;41010;53.252;5.786;2022-08-07T03:44:09;13.45;;;8.60;;
55114;SDS011;41010;53.252;5.786;2022-08-07T03:46:37;13.10;;;8.38;;
55114;SDS011;41010;53.252;5.786;2022-08-07T03:49:06;9.13;;;7.07;;
55114;SDS011;41010;53.252;5.786;2022-08-07T03:51:34;11.85;;;8.00;;
55114;SDS011;41010;53.252;5.786;2022-08-07T03:54:02;8.98;;;6.85;;
55114;SDS011;41010;53.252;5.786;2022-08-07T03:56:31;11.02;;;8.05;;
55114;SDS011;41010;53.252;5.786;2022-08-07T03:59:01;10.02;;;8.23;;
55114;SDS011;41010;53.252;5.786;2022-08-07T04:01:29;13.50;;;7.50;;
55114;SDS011;41010;53.252;5.786;2022-08-07T04:03:58;12.88;;;8.25;;
55114;SDS011;41010;53.252;5.786;2022-08-07T04:06:25;9.52;;;7.50;;
55114;SDS011;41010;53.252;5.786;2022-08-07T04:08:52;10.00;;;8.25;;
55114;SDS011;41010;53.252;5.786;2022-08-07T04:11:20;10.57;;;7.50;;
55114;SDS011;41010;53.252;5.786;2022-08-07T04:13:48;10.95;;;7.57;;
55114;SDS011;41010;53.252;5.786;2022-08-07T04:16:16;12.05;;;7.53;;
55114;SDS011;41010;53.252;5.786;2022-08-07T04:18:44;11.57;;;8.40;;
55114;SDS011;41010;53.252;5.786;2022-08-07T04:21:12;10.80;;;7.88;;
55114;SDS011;41010;53.252;5.786;2022-08-07T04:23:39;9.65;;;7.75;;
55114;SDS011;41010;53.252;5.786;2022-08-07T04:26:07;11.00;;;7.88;;
55114;SDS011;41010;53.252;5.786;2022-08-07T04:28:34;13.20;;;8.88;;
55114;SDS011;41010;53.252;5.786;2022-08-07T04:31:03;15.80;;;8.70;;
55114;SDS011;41010;53.252;5.786;2022-08-07T04:33:30;13.95;;;8.45;;
55114;SDS011;41010;53.252;5.786;2022-08-07T04:35:57;12.95;;;8.20;;
55114;SDS011;41010;53.252;5.786;2022-08-07T04:38:25;12.23;;;8.25;;
55114;SDS011;41010;53.252;5.786;2022-08-07T04:40:52;10.00;;;8.07;;
55114;SDS011;41010;53.252;5.786;2022-08-07T04:43:20;12.95;;;8.10;;
55114;SDS011;41010;53.252;5.786;2022-08-07T04:45:50;13.00;;;8.80;;
55114;SDS011;41010;53.252;5.786;2022-08-07T04:48:23;10.77;;;8.43;;
55114;SDS011;41010;53.252;5.786;2022-08-07T04:50:52;11.13;;;7.70;;
55114;SDS011;41010;53.252;5.786;2022-08-07T04:53:25;10.48;;;7.35;;
55114;SDS011;41010;53.252;5.786;2022-08-07T04:55:54;12.15;;;8.32;;
55114;SDS011;41010;53.252;5.786;2022-08-07T04:58:25;11.70;;;8.07;;
55114;SDS011;41010;53.252;5.786;2022-08-07T05:03:26;11.23;;;7.60;;
55114;SDS011;41010;53.252;5.786;2022-08-07T05:05:58;10.68;;;8.20;;
55114;SDS011;41010;53.252;5.786;2022-08-07T05:08:27;10.23;;;7.38;;
55114;SDS011;41010;53.252;5.786;2022-08-07T05:11:00;11.57;;;7.45;;
55114;SDS011;41010;53.252;5.786;2022-08-07T05:13:30;11.98;;;7.07;;
55114;SDS011;41010;53.252;5.786;2022-08-07T05:16:01;10.73;;;7.68;;
55114;SDS011;41010;53.252;5.786;2022-08-07T05:18:31;12.13;;;7.35;;
55114;SDS011;41010;53.252;5.786;2022-08-07T05:21:01;9.10;;;7.00;;
55114;SDS011;41010;53.252;5.786;2022-08-07T05:23:29;9.57;;;6.88;;
55114;SDS011;41010;53.252;5.786;2022-08-07T05:25:58;8.50;;;6.65;;
55114;SDS011;41010;53.252;5.786;2022-08-07T05:28:26;11.43;;;6.35;;
55114;SDS011;41010;53.252;5.786;2022-08-07T05:30:54;9.60;;;6.75;;
55114;SDS011;41010;53.252;5.786;2022-08-07T05:33:22;8.38;;;6.47;;
55114;SDS011;41010;53.252;5.786;2022-08-07T05:35:51;8.70;;;6.53;;
55114;SDS011;41010;53.252;5.786;2022-08-07T05:38:18;10.52;;;6.45;;
55114;SDS011;41010;53.252;5.786;2022-08-07T05:40:47;9.38;;;6.55;;
55114;SDS011;41010;53.252;5.786;2022-08-07T05:43:14;10.55;;;6.80;;
55114;SDS011;41010;53.252;5.786;2022-08-07T05:45:42;9.23;;;6.30;;
55114;SDS011;41010;53.252;5.786;2022-08-07T05:48:10;8.45;;;6.00;;
55114;SDS011;41010;53.252;5.786;2022-08-07T05:50:37;9.23;;;6.00;;
55114;SDS011;41010;53.252;5.786;2022-08-07T05:53:06;8.48;;;5.70;;
55114;SDS011;41010;53.252;5.786;2022-08-07T05:55:34;9.98;;;5.85;;
55114;SDS011;41010;53.252;5.786;2022-08-07T05:58:02;6.57;;;5.65;;
55114;SDS011;41010;53.252;5.786;2022-08-07T06:00:29;9.43;;;6.10;;
55114;SDS011;41010;53.252;5.786;2022-08-07T06:02:57;7.97;;;6.18;;
55114;SDS011;41010;53.252;5.786;2022-08-07T06:05:25;7.40;;;5.93;;
55114;SDS011;41010;53.252;5.786;2022-08-07T06:07:56;8.07;;;5.78;;
55114;SDS011;41010;53.252;5.786;2022-08-07T06:10:25;8.95;;;6.00;;
55114;SDS011;41010;53.252;5.786;2022-08-07T06:12:53;8.73;;;5.95;;
55114;SDS011;41010;53.252;5.786;2022-08-07T06:15:20;8.93;;;6.30;;
55114;SDS011;41010;53.252;5.786;2022-08-07T06:17:48;8.98;;;5.65;;
55114;SDS011;41010;53.252;5.786;2022-08-07T06:20:15;9.73;;;5.80;;
55114;SDS011;41010;53.252;5.786;2022-08-07T06:22:42;6.63;;;5.43;;
55114;SDS011;41010;53.252;5.786;2022-08-07T06:25:10;8.00;;;5.35;;
55114;SDS011;41010;53.252;5.786;2022-08-07T06:27:39;7.38;;;5.60;;
55114;SDS011;41010;53.252;5.786;2022-08-07T06:30:07;8.23;;;5.13;;
55114;SDS011;41010;53.252;5.786;2022-08-07T06:32:34;7.78;;;5.72;;
55114;SDS011;41010;53.252;5.786;2022-08-07T06:35:01;6.43;;;5.18;;
55114;SDS011;41010;53.252;5.786;2022-08-07T06:37:29;5.32;;;4.28;;
55114;SDS011;41010;53.252;5.786;2022-08-07T06:39:56;6.40;;;4.40;;
55114;SDS011;41010;53.252;5.786;2022-08-07T06:42:25;5.60;;;3.92;;
55114;SDS011;41010;53.252;5.786;2022-08-07T06:44:55;6.88;;;4.35;;
55114;SDS011;41010;53.252;5.786;2022-08-07T06:47:23;5.18;;;4.30;;
55114;SDS011;41010;53.252;5.786;2022-08-07T06:49:50;7.72;;;4.38;;
55114;SDS011;41010;53.252;5.786;2022-08-07T06:52:18;6.32;;;4.35;;
55114;SDS011;41010;53.252;5.786;2022-08-07T06:54:46;5.78;;;4.05;;
55114;SDS011;41010;53.252;5.786;2022-08-07T06:57:15;6.10;;;3.95;;
55114;SDS011;41010;53.252;5.786;2022-08-07T06:59:43;7.20;;;4.00;;
55114;SDS011;41010;53.252;5.786;2022-08-07T07:02:14;5.55;;;4.22;;
55114;SDS011;41010;53.252;5.786;2022-08-07T07:04:43;5.95;;;4.38;;
55114;SDS011;41010;53.252;5.786;2022-08-07T07:07:11;7.57;;;3.63;;
55114;SDS011;41010;53.252;5.786;2022-08-07T07:09:43;6.63;;;4.18;;
55114;SDS011;41010;53.252;5.786;2022-08-07T07:12:16;5.60;;;4.32;;
55114;SDS011;41010;53.252;5.786;2022-08-07T07:14:46;6.55;;;4.03;;
55114;SDS011;41010;53.252;5.786;2022-08-07T07:17:19;6.03;;;3.63;;
55114;SDS011;41010;53.252;5.786;2022-08-07T07:19:49;7.32;;;4.10;;
55114;SDS011;41010;53.252;5.786;2022-08-07T07:22:19;6.07;;;4.20;;
55114;SDS011;41010;53.252;5.786;2022-08-07T07:24:46;7.47;;;3.28;;
55114;SDS011;41010;53.252;5.786;2022-08-07T07:27:14;9.07;;;4.07;;
55114;SDS011;41010;53.252;5.786;2022-08-07T07:29:44;6.80;;;3.00;;
55114;SDS011;41010;53.252;5.786;2022-08-07T07:32:13;4.70;;;3.00;;
55114;SDS011;41010;53.252;5.786;2022-08-07T07:34:44;4.72;;;3.20;;
55114;SDS011;41010;53.252;5.786;2022-08-07T07:37:12;4.47;;;3.20;;
55114;SDS011;41010;53.252;5.786;2022-08-07T07:39:40;5.10;;;3.28;;
55114;SDS011;41010;53.252;5.786;2022-08-07T07:42:08;5.38;;;3.50;;
55114;SDS011;41010;53.252;5.786;2022-08-07T07:44:37;5.97;;;3.30;;
55114;SDS011;41010;53.252;5.786;2022-08-07T07:47:05;4.63;;;3.42;;
55114;SDS011;41010;53.252;5.786;2022-08-07T07:49:33;7.80;;;3.58;;
55114;SDS011;41010;53.252;5.786;2022-08-07T07:52:02;4.45;;;2.83;;
55114;SDS011;41010;53.252;5.786;2022-08-07T07:54:30;3.65;;;2.78;;
55114;SDS011;41010;53.252;5.786;2022-08-07T07:56:59;6.40;;;3.20;;
55114;SDS011;41010;53.252;5.786;2022-08-07T07:59:26;5.05;;;3.10;;
55114;SDS011;41010;53.252;5.786;2022-08-07T08:01:54;5.57;;;2.90;;
55114;SDS011;41010;53.252;5.786;2022-08-07T08:04:22;6.53;;;3.28;;
55114;SDS011;41010;53.252;5.786;2022-08-07T08:06:51;5.70;;;2.97;;
55114;SDS011;41010;53.252;5.786;2022-08-07T08:09:21;4.40;;;2.47;;
55114;SDS011;41010;53.252;5.786;2022-08-07T08:11:50;6.88;;;2.95;;
55114;SDS011;41010;53.252;5.786;2022-08-07T08:14:17;8.43;;;3.22;;
55114;SDS011;41010;53.252;5.786;2022-08-07T08:16:44;7.43;;;3.38;;
55114;SDS011;41010;53.252;5.786;2022-08-07T08:19:13;8.02;;;3.67;;
55114;SDS011;41010;53.252;5.786;2022-08-07T08:21:47;5.93;;;3.35;;
55114;SDS011;41010;53.252;5.786;2022-08-07T08:24:35;6.05;;;3.00;;
55114;SDS011;41010;53.252;5.786;2022-08-07T08:27:20;5.45;;;3.15;;
55114;SDS011;41010;53.252;5.786;2022-08-07T08:29:49;7.97;;;3.20;;
55114;SDS011;41010;53.252;5.786;2022-08-07T08:32:17;6.53;;;3.20;;
55114;SDS011;41010;53.252;5.786;2022-08-07T08:34:46;6.53;;;3.67;;
55114;SDS011;41010;53.252;5.786;2022-08-07T08:37:15;8.60;;;3.40;;
55114;SDS011;41010;53.252;5.786;2022-08-07T08:39:44;6.28;;;3.28;;
55114;SDS011;41010;53.252;5.786;2022-08-07T08:42:12;5.43;;;2.90;;
55114;SDS011;41010;53.252;5.786;2022-08-07T08:44:46;8.65;;;2.90;;
55114;SDS011;41010;53.252;5.786;2022-08-07T08:47:16;7.50;;;3.10;;
55114;SDS011;41010;53.252;5.786;2022-08-07T08:49:51;8.00;;;2.88;;
55114;SDS011;41010;53.252;5.786;2022-08-07T08:52:21;6.63;;;3.08;;
55114;SDS011;41010;53.252;5.786;2022-08-07T08:54:53;4.80;;;2.75;;
55114;SDS011;41010;53.252;5.786;2022-08-07T08:57:25;6.50;;;2.83;;
55114;SDS011;41010;53.252;5.786;2022-08-07T08:59:56;5.80;;;2.53;;
55114;SDS011;41010;53.252;5.786;2022-08-07T09:02:29;5.55;;;2.65;;
55114;SDS011;41010;53.252;5.786;2022-08-07T09:04:59;4.60;;;2.67;;
55114;SDS011;41010;53.252;5.786;2022-08-07T09:07:30;4.43;;;3.00;;
55114;SDS011;41010;53.252;5.786;2022-08-07T09:10:01;4.70;;;3.13;;
55114;SDS011;41010;53.252;5.786;2022-08-07T09:12:36;5.88;;;2.85;;
55114;SDS011;41010;53.252;5.786;2022-08-07T09:15:11;6.63;;;2.63;;
55114;SDS011;41010;53.252;5.786;2022-08-07T09:17:42;4.85;;;2.70;;
55114;SDS011;41010;53.252;5.786;2022-08-07T09:20:17;5.05;;;2.83;;
55114;SDS011;41010;53.252;5.786;2022-08-07T09:22:52;4.25;;;2.20;;
55114;SDS011;41010;53.252;5.786;2022-08-07T09:25:23;4.65;;;2.58;;
55114;SDS011;41010;53.252;5.786;2022-08-07T09:27:54;4.53;;;2.22;;
55114;SDS011;41010;53.252;5.786;2022-08-07T09:30:23;4.25;;;2.15;;
55114;SDS011;41010;53.252;5.786;2022-08-07T09:32:59;5.78;;;2.55;;
55114;SDS011;41010;53.252;5.786;2022-08-07T09:35:33;4.55;;;2.58;;
55114;SDS011;41010;53.252;5.786;2022-08-07T09:38:03;5.95;;;2.17;;
55114;SDS011;41010;53.252;5.786;2022-08-07T09:40:41;6.03;;;2.17;;
55114;SDS011;41010;53.252;5.786;2022-08-07T09:43:15;4.07;;;2.22;;
55114;SDS011;41010;53.252;5.786;2022-08-07T09:45:46;4.93;;;2.13;;
55114;SDS011;41010;53.252;5.786;2022-08-07T09:48:21;8.18;;;1.95;;
55114;SDS011;41010;53.252;5.786;2022-08-07T09:50:53;6.57;;;2.25;;
55114;SDS011;41010;53.252;5.786;2022-08-07T09:53:23;5.40;;;2.10;;
55114;SDS011;41010;53.252;5.786;2022-08-07T09:55:59;4.90;;;2.40;;
55114;SDS011;41010;53.252;5.786;2022-08-07T09:58:46;3.80;;;1.70;;
55114;SDS011;41010;53.252;5.786;2022-08-07T10:01:29;8.43;;;2.10;;
55114;SDS011;41010;53.252;5.786;2022-08-07T10:04:06;3.65;;;1.90;;
55114;SDS011;41010;53.252;5.786;2022-08-07T10:09:25;5.90;;;2.17;;
55114;SDS011;41010;53.252;5.786;2022-08-07T10:12:04;5.55;;;1.95;;
55114;SDS011;41010;53.252;5.786;2022-08-07T10:17:22;5.65;;;1.60;;
55114;SDS011;41010;53.252;5.786;2022-08-07T10:19:59;3.58;;;1.67;;
55114;SDS011;41010;53.252;5.786;2022-08-07T10:22:31;4.28;;;1.70;;
55114;SDS011;41010;53.252;5.786;2022-08-07T10:25:06;4.50;;;1.88;;
55114;SDS011;41010;53.252;5.786;2022-08-07T10:27:40;4.38;;;1.70;;
55114;SDS011;41010;53.252;5.786;2022-08-07T10:30:12;5.18;;;1.75;;
55114;SDS011;41010;53.252;5.786;2022-08-07T10:35:35;4.90;;;1.38;;
55114;SDS011;41010;53.252;5.786;2022-08-07T10:38:11;5.25;;;1.20;;
55114;SDS011;41010;53.252;5.786;2022-08-07T10:40:42;4.82;;;1.17;;
55114;SDS011;41010;53.252;5.786;2022-08-07T10:43:13;3.28;;;1.33;;
55114;SDS011;41010;53.252;5.786;2022-08-07T10:45:42;4.28;;;1.10;;
55114;SDS011;41010;53.252;5.786;2022-08-07T10:48:13;2.78;;;1.17;;
55114;SDS011;41010;53.252;5.786;2022-08-07T10:50:44;2.55;;;0.90;;
55114;SDS011;41010;53.252;5.786;2022-08-07T10:53:14;1.67;;;1.10;;
55114;SDS011;41010;53.252;5.786;2022-08-07T10:55:44;3.70;;;1.35;;
55114;SDS011;41010;53.252;5.786;2022-08-07T10:58:17;2.55;;;1.15;;
55114;SDS011;41010;53.252;5.786;2022-08-07T11:00:48;3.17;;;1.15;;
55114;SDS011;41010;53.252;5.786;2022-08-07T11:03:21;3.83;;;1.20;;
55114;SDS011;41010;53.252;5.786;2022-08-07T11:05:51;2.97;;;1.20;;
55114;SDS011;41010;53.252;5.786;2022-08-07T11:08:24;3.88;;;1.10;;
55114;SDS011;41010;53.252;5.786;2022-08-07T11:10:54;3.08;;;1.13;;
55114;SDS011;41010;53.252;5.786;2022-08-07T11:13:29;2.80;;;1.20;;
55114;SDS011;41010;53.252;5.786;2022-08-07T11:15:59;3.15;;;1.05;;
55114;SDS011;41010;53.252;5.786;2022-08-07T11:18:29;2.00;;;1.02;;
55114;SDS011;41010;53.252;5.786;2022-08-07T11:21:01;3.75;;;1.15;;
55114;SDS011;41010;53.252;5.786;2022-08-07T11:23:32;2.20;;;1.00;;
55114;SDS011;41010;53.252;5.786;2022-08-07T11:26:04;3.08;;;1.10;;
55114;SDS011;41010;53.252;5.786;2022-08-07T11:28:39;3.08;;;1.15;;
55114;SDS011;41010;53.252;5.786;2022-08-07T11:31:09;2.70;;;1.23;;
55114;SDS011;41010;53.252;5.786;2022-08-07T11:33:41;2.90;;;1.20;;
55114;SDS011;41010;53.252;5.786;2022-08-07T11:36:13;2.45;;;0.93;;
55114;SDS011;41010;53.252;5.786;2022-08-07T11:38:46;2.38;;;1.10;;
55114;SDS011;41010;53.252;5.786;2022-08-07T11:41:17;2.80;;;1.20;;
55114;SDS011;41010;53.252;5.786;2022-08-07T11:43:50;4.28;;;1.23;;
55114;SDS011;41010;53.252;5.786;2022-08-07T11:46:22;2.78;;;1.20;;
55114;SDS011;41010;53.252;5.786;2022-08-07T11:48:59;3.38;;;1.23;;
55114;SDS011;41010;53.252;5.786;2022-08-07T11:51:33;2.40;;;1.30;;
55114;SDS011;41010;53.252;5.786;2022-08-07T11:54:08;2.85;;;1.30;;
55114;SDS011;41010;53.252;5.786;2022-08-07T11:56:43;3.55;;;1.10;;
55114;SDS011;41010;53.252;5.786;2022-08-07T11:59:20;2.55;;;1.20;;
55114;SDS011;41010;53.252;5.786;2022-08-07T12:01:52;3.90;;;1.50;;
55114;SDS011;41010;53.252;5.786;2022-08-07T12:04:27;2.03;;;1.40;;
55114;SDS011;41010;53.252;5.786;2022-08-07T12:07:00;3.25;;;2.00;;
55114;SDS011;41010;53.252;5.786;2022-08-07T12:09:34;3.90;;;1.58;;
55114;SDS011;41010;53.252;5.786;2022-08-07T12:12:03;2.47;;;1.50;;
55114;SDS011;41010;53.252;5.786;2022-08-07T12:14:34;4.45;;;1.60;;
55114;SDS011;41010;53.252;5.786;2022-08-07T12:19:33;3.28;;;1.58;;
55114;SDS011;41010;53.252;5.786;2022-08-07T12:22:03;4.55;;;1.75;;
55114;SDS011;41010;53.252;5.786;2022-08-07T12:24:33;8.50;;;1.90;;
55114;SDS011;41010;53.252;5.786;2022-08-07T12:27:06;4.15;;;1.83;;
55114;SDS011;41010;53.252;5.786;2022-08-07T12:29:40;4.22;;;2.10;;
55114;SDS011;41010;53.252;5.786;2022-08-07T12:34:35;3.38;;;1.83;;
55114;SDS011;41010;53.252;5.786;2022-08-07T12:37:04;5.05;;;1.73;;
55114;SDS011;41010;53.252;5.786;2022-08-07T12:39:32;5.78;;;1.88;;
55114;SDS011;41010;53.252;5.786;2022-08-07T12:42:01;3.13;;;1.63;;
55114;SDS011;41010;53.252;5.786;2022-08-07T12:44:28;4.32;;;2.20;;
55114;SDS011;41010;53.252;5.786;2022-08-07T12:47:02;4.38;;;1.60;;
55114;SDS011;41010;53.252;5.786;2022-08-07T12:49:36;6.20;;;2.00;;
55114;SDS011;41010;53.252;5.786;2022-08-07T12:52:08;4.88;;;2.13;;
55114;SDS011;41010;53.252;5.786;2022-08-07T12:54:39;4.93;;;2.20;;
55114;SDS011;41010;53.252;5.786;2022-08-07T12:57:07;3.83;;;1.70;;
55114;SDS011;41010;53.252;5.786;2022-08-07T12:59:35;2.83;;;1.95;;
55114;SDS011;41010;53.252;5.786;2022-08-07T13:02:09;6.50;;;2.10;;
55114;SDS011;41010;53.252;5.786;2022-08-07T13:04:42;6.80;;;2.25;;
55114;SDS011;41010;53.252;5.786;2022-08-07T13:07:14;4.43;;;2.15;;
55114;SDS011;41010;53.252;5.786;2022-08-07T13:09:56;4.45;;;1.70;;
55114;SDS011;41010;53.252;5.786;2022-08-07T13:12:27;5.53;;;1.80;;
55114;SDS011;41010;53.252;5.786;2022-08-07T13:14:58;5.53;;;1.63;;
55114;SDS011;41010;53.252;5.786;2022-08-07T13:17:29;3.88;;;1.63;;
55114;SDS011;41010;53.252;5.786;2022-08-07T13:19:59;7.57;;;1.80;;
55114;SDS011;41010;53.252;5.786;2022-08-07T13:22:29;6.00;;;1.50;;
55114;SDS011;41010;53.252;5.786;2022-08-07T13:24:59;3.47;;;1.70;;
55114;SDS011;41010;53.252;5.786;2022-08-07T13:27:28;4.80;;;1.40;;
55114;SDS011;41010;53.252;5.786;2022-08-07T13:29:58;2.95;;;1.40;;
55114;SDS011;41010;53.252;5.786;2022-08-07T13:32:29;3.80;;;1.63;;
55114;SDS011;41010;53.252;5.786;2022-08-07T13:34:59;7.13;;;2.10;;
55114;SDS011;41010;53.252;5.786;2022-08-07T13:37:28;5.20;;;1.92;;
55114;SDS011;41010;53.252;5.786;2022-08-07T13:40:08;5.82;;;2.03;;
55114;SDS011;41010;53.252;5.786;2022-08-07T13:45:07;3.38;;;1.80;;
55114;SDS011;41010;53.252;5.786;2022-08-07T13:47:37;5.13;;;2.38;;
55114;SDS011;41010;53.252;5.786;2022-08-07T13:50:06;5.72;;;2.22;;
55114;SDS011;41010;53.252;5.786;2022-08-07T13:52:35;5.07;;;2.10;;
55114;SDS011;41010;53.252;5.786;2022-08-07T13:55:06;5.32;;;2.35;;
55114;SDS011;41010;53.252;5.786;2022-08-07T13:57:34;4.43;;;2.40;;
55114;SDS011;41010;53.252;5.786;2022-08-07T14:00:05;6.80;;;2.30;;
55114;SDS011;41010;53.252;5.786;2022-08-07T14:02:33;4.30;;;2.22;;
55114;SDS011;41010;53.252;5.786;2022-08-07T14:05:03;6.60;;;2.55;;
55114;SDS011;41010;53.252;5.786;2022-08-07T14:07:32;5.13;;;2.40;;
55114;SDS011;41010;53.252;5.786;2022-08-07T14:10:03;4.35;;;2.22;;
55114;SDS011;41010;53.252;5.786;2022-08-07T14:12:32;5.30;;;2.65;;
55114;SDS011;41010;53.252;5.786;2022-08-07T14:15:05;5.30;;;2.28;;
55114;SDS011;41010;53.252;5.786;2022-08-07T14:17:35;5.30;;;2.30;;
55114;SDS011;41010;53.252;5.786;2022-08-07T14:20:07;5.07;;;2.42;;
55114;SDS011;41010;53.252;5.786;2022-08-07T14:22:34;4.03;;;2.40;;
55114;SDS011;41010;53.252;5.786;2022-08-07T14:25:05;6.47;;;2.42;;
55114;SDS011;41010;53.252;5.786;2022-08-07T14:27:34;7.90;;;2.70;;
55114;SDS011;41010;53.252;5.786;2022-08-07T14:30:03;4.57;;;2.28;;
55114;SDS011;41010;53.252;5.786;2022-08-07T14:32:35;9.13;;;2.63;;
55114;SDS011;41010;53.252;5.786;2022-08-07T14:35:05;4.90;;;3.03;;
55114;SDS011;41010;53.252;5.786;2022-08-07T14:37:33;7.60;;;2.70;;
55114;SDS011;41010;53.252;5.786;2022-08-07T14:40:00;6.65;;;2.80;;
55114;SDS011;41010;53.252;5.786;2022-08-07T14:42:28;5.60;;;2.70;;
55114;SDS011;41010;53.252;5.786;2022-08-07T14:45:00;10.00;;;2.70;;
55114;SDS011;41010;53.252;5.786;2022-08-07T14:47:29;5.85;;;2.65;;
55114;SDS011;41010;53.252;5.786;2022-08-07T14:49:57;6.70;;;2.50;;
55114;SDS011;41010;53.252;5.786;2022-08-07T14:52:26;6.30;;;2.65;;
55114;SDS011;41010;53.252;5.786;2022-08-07T14:54:58;6.25;;;2.42;;
55114;SDS011;41010;53.252;5.786;2022-08-07T14:57:26;6.88;;;2.30;;
55114;SDS011;41010;53.252;5.786;2022-08-07T14:59:54;4.82;;;2.17;;
55114;SDS011;41010;53.252;5.786;2022-08-07T15:02:22;8.45;;;2.80;;
55114;SDS011;41010;53.252;5.786;2022-08-07T15:04:50;4.45;;;2.30;;
55114;SDS011;41010;53.252;5.786;2022-08-07T15:07:19;7.32;;;2.30;;
55114;SDS011;41010;53.252;5.786;2022-08-07T15:09:49;8.10;;;2.47;;
55114;SDS011;41010;53.252;5.786;2022-08-07T15:12:18;3.63;;;2.15;;
55114;SDS011;41010;53.252;5.786;2022-08-07T15:14:46;7.40;;;2.47;;
55114;SDS011;41010;53.252;5.786;2022-08-07T15:17:15;5.60;;;2.38;;
55114;SDS011;41010;53.252;5.786;2022-08-07T15:19:46;7.93;;;2.38;;